Audrey — PD9331 — position and weather

sailwx.info

Track history (hours):
 
Tides and Currents Weather Stations Pressure Air Temp Water Temp Dewpoint Dewpoint Depression Visibility Wind Speed Wind Dir Waves Ship Positions

Audrey

Last reported at 2014-Oct-14 16:33 UTC. Time now 2014-Oct-23 17:14 UTC.
Position N 51°08' E 006°51'.
Warning: this ship's position is 9 days out of date.

Length 85 m; draft 2.3 m.

Type: Other ship. MMSI: 244660106.

Date/timePositionNaut miles runAvg speedWind from/ knotsBaromVisibWave heightAir tempDewpointWater temp
2014-Oct-14 16:33N 51°08' E 006°51'3 2.7
2014-Oct-14 15:33N 51°09' E 006°48'4 4.0
2014-Oct-14 14:33N 51°12' E 006°44'3 2.9
2014-Oct-14 13:33N 51°15' E 006°45'4 3.9
2014-Oct-14 12:33N 51°19' E 006°44'4 2.7
2014-Oct-14 11:12N 51°23' E 006°43'37 4.1
2014-Oct-14 02:13N 51°51' E 006°05'1 0.3
2014-Oct-14 00:20N 51°52' E 006°04'0 0.0
2014-Oct-13 22:09N 51°52' E 006°04'10 2.6
2014-Oct-13 18:33N 51°52' E 005°49'6 6.4
2014-Oct-13 17:33N 51°54' E 005°39'6 6.4
2014-Oct-13 16:33N 51°53' E 005°29'5 5.1
2014-Oct-13 15:33N 51°57' E 005°23'3 2.8
2014-Oct-13 14:33N 51°58' E 005°19'6 6.5
2014-Oct-13 13:33N 52°01' E 005°09'8 7.8
2014-Oct-13 12:33N 52°08' E 005°03'7 7.4
2014-Oct-13 11:33N 52°15' E 005°01'7 7.4
2014-Oct-13 10:33N 52°22' E 004°57'4 3.9
2014-Oct-13 09:34N 52°24' E 004°52'0 0.1
2014-Oct-13 08:34N 52°24' E 004°52'0 0.0
2014-Oct-13 07:34N 52°24' E 004°52'0 0.0
2014-Oct-13 06:34N 52°24' E 004°52'0 0.2
2014-Oct-13 05:33N 52°24' E 004°52'0 0.0
2014-Oct-13 04:33N 52°24' E 004°52'0 0.0
2014-Oct-13 03:33N 52°24' E 004°52'0 0.0
2014-Oct-13 02:33N 52°24' E 004°52'0 0.0
2014-Oct-13 01:33N 52°24' E 004°52'0 0.0
2014-Oct-13 00:34N 52°24' E 004°52'0 0.0
2014-Oct-12 23:34N 52°24' E 004°52'0 0.0
2014-Oct-12 22:33N 52°24' E 004°52'0 0.0
2014-Oct-12 21:33N 52°24' E 004°52'0 0.0
2014-Oct-12 20:33N 52°24' E 004°52'0 0.0
2014-Oct-12 19:33N 52°24' E 004°52'0 0.0
2014-Oct-12 18:33N 52°24' E 004°52'0 0.0
2014-Oct-12 17:34N 52°24' E 004°52'0 0.0
2014-Oct-12 16:33N 52°24' E 004°52'0 0.0
2014-Oct-12 15:34N 52°24' E 004°52'0 0.0
2014-Oct-12 14:34N 52°24' E 004°52'0 0.0
2014-Oct-12 13:33N 52°24' E 004°52'0 0.0
2014-Oct-12 12:33N 52°24' E 004°52'0 0.0
2014-Oct-12 11:33N 52°24' E 004°52'0 0.0
2014-Oct-12 10:33N 52°24' E 004°52'0 0.0
2014-Oct-12 09:34N 52°24' E 004°52'0 0.0
2014-Oct-12 08:33N 52°24' E 004°52'0 0.0
2014-Oct-12 07:34N 52°24' E 004°52'0 0.0
2014-Oct-12 06:33N 52°24' E 004°52'0 0.0
2014-Oct-12 05:33N 52°24' E 004°52'0 0.0
2014-Oct-12 04:33N 52°24' E 004°52'0 0.0
2014-Oct-12 03:33N 52°24' E 004°52'0 0.0
2014-Oct-12 02:33N 52°24' E 004°52'0 0.0
2014-Oct-12 01:34N 52°24' E 004°52'0 0.0
2014-Oct-12 00:33N 52°24' E 004°52'0 0.0
2014-Oct-11 23:33N 52°24' E 004°52'0 0.0
2014-Oct-11 22:33N 52°24' E 004°52'0 0.0
2014-Oct-11 21:34N 52°24' E 004°52'0 0.0
2014-Oct-11 20:33N 52°24' E 004°52'0 0.0
2014-Oct-11 19:33N 52°24' E 004°52'0 0.0
2014-Oct-11 18:33N 52°24' E 004°52'0 0.0
2014-Oct-11 17:33N 52°24' E 004°52'0 0.0
2014-Oct-11 16:33N 52°24' E 004°52'0 0.0
2014-Oct-11 15:33N 52°24' E 004°52'0 0.0
2014-Oct-11 14:34N 52°24' E 004°52'0 0.0
2014-Oct-11 13:34N 52°24' E 004°52'0 0.0
2014-Oct-11 12:33N 52°24' E 004°52'0 0.0
2014-Oct-11 11:33N 52°24' E 004°52'0 0.0
2014-Oct-11 10:33N 52°24' E 004°52'0 0.0
2014-Oct-11 09:33N 52°24' E 004°52'0 0.0
2014-Oct-11 08:33N 52°24' E 004°52'0 0.0
2014-Oct-11 07:33N 52°24' E 004°52'0 0.0
2014-Oct-11 06:34N 52°24' E 004°52'0 0.0
2014-Oct-11 05:33N 52°24' E 004°52'0 0.0
2014-Oct-11 04:33N 52°24' E 004°52'0 0.0
2014-Oct-11 03:34N 52°24' E 004°52'0 0.0
2014-Oct-11 02:33N 52°24' E 004°52'0 0.0
2014-Oct-11 01:34N 52°24' E 004°52'0 0.0
2014-Oct-11 00:33N 52°24' E 004°52'0 0.0
2014-Oct-10 23:34N 52°24' E 004°52'0 0.0
2014-Oct-10 22:34N 52°24' E 004°52'0 0.0
2014-Oct-10 21:33N 52°24' E 004°52'0 0.0
2014-Oct-10 20:34N 52°24' E 004°52'0 0.0
2014-Oct-10 19:34N 52°24' E 004°52'0 0.0
2014-Oct-10 18:34N 52°24' E 004°52'0 0.0
2014-Oct-10 17:33N 52°24' E 004°52'0 0.0
2014-Oct-10 16:34N 52°24' E 004°52'0 0.0
2014-Oct-10 15:33N 52°24' E 004°52'0 0.0
2014-Oct-10 14:33N 52°24' E 004°52'0 0.1
2014-Oct-10 13:33N 52°24' E 004°52'0 0.1
2014-Oct-10 12:34N 52°24' E 004°52'0 0.0
2014-Oct-10 11:33N 52°24' E 004°52'0 0.0
2014-Oct-10 10:34N 52°24' E 004°52'0 0.0
2014-Oct-10 09:33N 52°24' E 004°52'0 0.0
2014-Oct-10 08:34N 52°24' E 004°52'0 0.0
2014-Oct-10 07:34N 52°24' E 004°52'0 0.0
2014-Oct-10 06:34N 52°24' E 004°52'0 0.0
2014-Oct-10 05:33N 52°24' E 004°52'0 0.0
2014-Oct-10 04:33N 52°24' E 004°52'0 0.0
2014-Oct-10 03:33N 52°24' E 004°52'0 0.0
2014-Oct-10 02:33N 52°24' E 004°52'0 0.0
2014-Oct-10 01:33N 52°24' E 004°52'0 0.0
2014-Oct-10 00:34N 52°24' E 004°52'0 0.0
2014-Oct-09 23:33N 52°24' E 004°52'0 0.0
2014-Oct-09 22:33N 52°24' E 004°52'0 0.0
2014-Oct-09 21:33N 52°24' E 004°52'0 0.0
2014-Oct-09 20:33N 52°24' E 004°52'0 0.0
2014-Oct-09 19:33N 52°24' E 004°52'0 0.0
2014-Oct-09 18:33N 52°24' E 004°52'0 0.0
2014-Oct-09 17:33N 52°24' E 004°52'0 0.0
2014-Oct-09 16:34N 52°24' E 004°52'0 0.0
2014-Oct-09 15:33N 52°24' E 004°52'0 0.0
2014-Oct-09 14:33N 52°24' E 004°52'4 4.0
2014-Oct-09 13:33N 52°22' E 004°57'7 7.3
2014-Oct-09 12:33N 52°15' E 005°01'8 7.6
2014-Oct-09 11:33N 52°08' E 005°03'7 7.0
2014-Oct-09 10:33N 52°01' E 005°07'1 1.3
2014-Oct-09 09:33N 51°60' E 005°05'7 6.6
2014-Oct-09 08:33N 51°57' E 004°56'7 7.0
2014-Oct-09 07:33N 51°54' E 004°45'5 4.8
2014-Oct-09 06:33N 51°51' E 004°40'5 5.4
2014-Oct-09 05:33N 51°46' E 004°37'0 0.0
2014-Oct-09 04:32N 51°46' E 004°37'0 0.0
2014-Oct-09 03:32N 51°46' E 004°37'0 0.0
2014-Oct-09 02:33N 51°46' E 004°37'0 0.0
2014-Oct-09 01:33N 51°46' E 004°37'0 0.0
2014-Oct-09 00:32N 51°46' E 004°37'0 0.0
2014-Oct-08 23:33N 51°46' E 004°37'0 0.0
2014-Oct-08 22:33N 51°46' E 004°37'0 0.0
2014-Oct-08 21:33N 51°46' E 004°37'0 0.0
2014-Oct-08 20:33N 51°46' E 004°37'0 0.0
2014-Oct-08 19:33N 51°46' E 004°37'0 0.0
2014-Oct-08 18:33N 51°46' E 004°37'0 0.0
2014-Oct-08 17:33N 51°46' E 004°37'0 0.0
2014-Oct-08 16:33N 51°46' E 004°37'0 0.0
2014-Oct-08 15:33N 51°46' E 004°37'0 0.0
2014-Oct-08 14:33N 51°46' E 004°37'0 0.0
2014-Oct-08 13:33N 51°46' E 004°37'0 0.0
2014-Oct-08 12:33N 51°46' E 004°37'0 0.0
2014-Oct-08 11:33N 51°46' E 004°37'0 0.0
2014-Oct-08 10:33N 51°46' E 004°37'0 0.0
2014-Oct-08 09:33N 51°46' E 004°37'0 0.1
2014-Oct-08 08:33N 51°46' E 004°37'3 3.4
2014-Oct-08 07:34N 51°49' E 004°39'0 0.0
2014-Oct-08 06:33N 51°49' E 004°39'0 0.0
2014-Oct-08 05:34N 51°49' E 004°39'0 0.0
2014-Oct-08 04:34N 51°49' E 004°39'0 0.0
2014-Oct-08 03:34N 51°49' E 004°39'0 0.0
2014-Oct-08 02:33N 51°49' E 004°39'0 0.0
2014-Oct-08 01:34N 51°49' E 004°39'0 0.0
2014-Oct-08 00:34N 51°49' E 004°39'0 0.0
2014-Oct-07 23:34N 51°49' E 004°39'0 0.0
2014-Oct-07 22:34N 51°49' E 004°39'0 0.0
2014-Oct-07 21:34N 51°49' E 004°39'0 0.0
2014-Oct-07 20:33N 51°49' E 004°39'0 0.0
2014-Oct-07 19:33N 51°49' E 004°39'0 0.0
2014-Oct-07 18:33N 51°49' E 004°39'0 0.0
2014-Oct-07 17:33N 51°49' E 004°39'0 0.0
2014-Oct-07 16:33N 51°49' E 004°39'0 0.0
2014-Oct-07 15:33N 51°49' E 004°39'0 0.0
2014-Oct-07 14:34N 51°49' E 004°39'0 0.0
2014-Oct-07 13:33N 51°49' E 004°39'0 0.0
2014-Oct-07 12:33N 51°49' E 004°39'0 0.0
2014-Oct-07 11:34N 51°49' E 004°39'0 0.0
2014-Oct-07 10:33N 51°49' E 004°39'0 0.0
2014-Oct-07 09:33N 51°49' E 004°39'0 0.0
2014-Oct-07 08:33N 51°49' E 004°39'0 0.0
2014-Oct-07 07:33N 51°49' E 004°39'0 0.0
2014-Oct-07 06:33N 51°49' E 004°39'0 0.0
2014-Oct-07 05:33N 51°49' E 004°39'0 0.0
2014-Oct-07 04:34N 51°49' E 004°39'0 0.0
2014-Oct-07 03:33N 51°49' E 004°39'0 0.0
2014-Oct-07 02:34N 51°49' E 004°39'0 0.0
2014-Oct-07 01:34N 51°49' E 004°39'0 0.0
2014-Oct-07 00:34N 51°49' E 004°39'0 0.0
2014-Oct-06 23:34N 51°49' E 004°39'0 0.0
2014-Oct-06 22:34N 51°49' E 004°39'0 0.0
2014-Oct-06 21:34N 51°49' E 004°39'0 0.0
2014-Oct-06 20:34N 51°49' E 004°39'0 0.0
2014-Oct-06 19:34N 51°49' E 004°39'0 0.0
2014-Oct-06 18:34N 51°49' E 004°39'0 0.0
2014-Oct-06 17:34N 51°49' E 004°39'0 0.0
2014-Oct-06 16:33N 51°49' E 004°39'0 0.0
2014-Oct-06 15:34N 51°49' E 004°39'0 0.0
2014-Oct-06 14:33N 51°49' E 004°39'0 0.0
2014-Oct-06 13:33N 51°49' E 004°39'0 0.0
2014-Oct-06 12:34N 51°49' E 004°39'0 0.0
2014-Oct-06 11:33N 51°49' E 004°39'0 0.0
2014-Oct-06 10:33N 51°49' E 004°39'0 0.0
2014-Oct-06 09:33N 51°49' E 004°39'0 0.0
2014-Oct-06 08:33N 51°49' E 004°39'0 0.0
2014-Oct-06 07:34N 51°49' E 004°39'0 0.0
2014-Oct-06 06:34N 51°49' E 004°39'0 0.0
2014-Oct-06 05:34N 51°49' E 004°39'0 0.0
2014-Oct-06 04:34N 51°49' E 004°39'0 0.0
2014-Oct-06 03:33N 51°49' E 004°39'0 0.0
2014-Oct-06 02:33N 51°49' E 004°39'0 0.0
2014-Oct-06 01:33N 51°49' E 004°39'0 0.0
2014-Oct-06 00:33N 51°49' E 004°39'0 0.0
2014-Oct-05 23:34N 51°49' E 004°39'0 0.0
2014-Oct-05 22:34N 51°49' E 004°39'0 0.0
2014-Oct-05 21:34N 51°49' E 004°39'0 0.0
2014-Oct-05 20:34N 51°49' E 004°39'0 0.0
2014-Oct-05 19:34N 51°49' E 004°39'0 0.0
2014-Oct-05 18:34N 51°49' E 004°39'0 0.0
2014-Oct-05 17:34N 51°49' E 004°39'0 0.0
2014-Oct-05 16:33N 51°49' E 004°39'0 0.0
2014-Oct-05 15:33N 51°49' E 004°39'0 0.0
2014-Oct-05 14:33N 51°49' E 004°39'0 0.0
2014-Oct-05 13:34N 51°49' E 004°39'0 0.0
2014-Oct-05 12:33N 51°49' E 004°39'0 0.0
2014-Oct-05 11:34N 51°49' E 004°39'0 0.0
2014-Oct-05 10:34N 51°49' E 004°39'0 0.0
2014-Oct-05 09:33N 51°49' E 004°39'0 0.0
2014-Oct-05 08:33N 51°49' E 004°39'0 0.0
2014-Oct-05 07:33N 51°49' E 004°39'0 0.0
2014-Oct-05 06:34N 51°49' E 004°39'0 0.0
2014-Oct-05 05:33N 51°49' E 004°39'0 0.0
2014-Oct-05 04:33N 51°49' E 004°39'0 0.0
2014-Oct-05 03:33N 51°49' E 004°39'0 0.0
2014-Oct-05 02:33N 51°49' E 004°39'0 0.0
2014-Oct-05 01:34N 51°49' E 004°39'0 0.0
2014-Oct-05 00:34N 51°49' E 004°39'0 0.0
2014-Oct-04 23:33N 51°49' E 004°39'0 0.0
2014-Oct-04 22:34N 51°49' E 004°39'0 0.0
2014-Oct-04 21:34N 51°49' E 004°39'0 0.0
2014-Oct-04 20:33N 51°49' E 004°39'0 0.0
2014-Oct-04 19:33N 51°49' E 004°39'0 0.0
2014-Oct-04 18:34N 51°49' E 004°39'0 0.0
2014-Oct-04 17:33N 51°49' E 004°39'0 0.0
2014-Oct-04 16:33N 51°49' E 004°39'  
Track history (hours):
 
Tides and Currents Weather Stations Pressure Air Temp Water Temp Dewpoint Dewpoint Depression Visibility Wind Speed Wind Dir Waves Ship Positions

Audrey

Last reported at 2014-Oct-14 16:33 UTC. Time now 2014-Oct-23 17:14 UTC.
Position N 51°08' E 006°51'.
Warning: this ship's position is 9 days out of date.

Length 85 m; draft 2.3 m.

Type: Other ship. MMSI: 244660106.

Date/timePositionNaut miles runAvg speedWind from/ knotsBaromVisibWave heightAir tempDewpointWater temp
2014-Oct-14 16:33N 51°08' E 006°51'3 2.7
2014-Oct-14 15:33N 51°09' E 006°48'4 4.0
2014-Oct-14 14:33N 51°12' E 006°44'3 2.9
2014-Oct-14 13:33N 51°15' E 006°45'4 3.9
2014-Oct-14 12:33N 51°19' E 006°44'4 2.7
2014-Oct-14 11:12N 51°23' E 006°43'37 4.1
2014-Oct-14 02:13N 51°51' E 006°05'1 0.3
2014-Oct-14 00:20N 51°52' E 006°04'0 0.0
2014-Oct-13 22:09N 51°52' E 006°04'10 2.6
2014-Oct-13 18:33N 51°52' E 005°49'6 6.4
2014-Oct-13 17:33N 51°54' E 005°39'6 6.4
2014-Oct-13 16:33N 51°53' E 005°29'5 5.1
2014-Oct-13 15:33N 51°57' E 005°23'3 2.8
2014-Oct-13 14:33N 51°58' E 005°19'6 6.5
2014-Oct-13 13:33N 52°01' E 005°09'8 7.8
2014-Oct-13 12:33N 52°08' E 005°03'7 7.4
2014-Oct-13 11:33N 52°15' E 005°01'7 7.4
2014-Oct-13 10:33N 52°22' E 004°57'4 3.9
2014-Oct-13 09:34N 52°24' E 004°52'0 0.1
2014-Oct-13 08:34N 52°24' E 004°52'0 0.0
2014-Oct-13 07:34N 52°24' E 004°52'0 0.0
2014-Oct-13 06:34N 52°24' E 004°52'0 0.2
2014-Oct-13 05:33N 52°24' E 004°52'0 0.0
2014-Oct-13 04:33N 52°24' E 004°52'0 0.0
2014-Oct-13 03:33N 52°24' E 004°52'0 0.0
2014-Oct-13 02:33N 52°24' E 004°52'0 0.0
2014-Oct-13 01:33N 52°24' E 004°52'0 0.0
2014-Oct-13 00:34N 52°24' E 004°52'0 0.0
2014-Oct-12 23:34N 52°24' E 004°52'0 0.0
2014-Oct-12 22:33N 52°24' E 004°52'0 0.0
2014-Oct-12 21:33N 52°24' E 004°52'0 0.0
2014-Oct-12 20:33N 52°24' E 004°52'0 0.0
2014-Oct-12 19:33N 52°24' E 004°52'0 0.0
2014-Oct-12 18:33N 52°24' E 004°52'0 0.0
2014-Oct-12 17:34N 52°24' E 004°52'0 0.0
2014-Oct-12 16:33N 52°24' E 004°52'0 0.0
2014-Oct-12 15:34N 52°24' E 004°52'0 0.0
2014-Oct-12 14:34N 52°24' E 004°52'0 0.0
2014-Oct-12 13:33N 52°24' E 004°52'0 0.0
2014-Oct-12 12:33N 52°24' E 004°52'0 0.0
2014-Oct-12 11:33N 52°24' E 004°52'0 0.0
2014-Oct-12 10:33N 52°24' E 004°52'0 0.0
2014-Oct-12 09:34N 52°24' E 004°52'0 0.0
2014-Oct-12 08:33N 52°24' E 004°52'0 0.0
2014-Oct-12 07:34N 52°24' E 004°52'0 0.0
2014-Oct-12 06:33N 52°24' E 004°52'0 0.0
2014-Oct-12 05:33N 52°24' E 004°52'0 0.0
2014-Oct-12 04:33N 52°24' E 004°52'0 0.0
2014-Oct-12 03:33N 52°24' E 004°52'0 0.0
2014-Oct-12 02:33N 52°24' E 004°52'0 0.0
2014-Oct-12 01:34N 52°24' E 004°52'0 0.0
2014-Oct-12 00:33N 52°24' E 004°52'0 0.0
2014-Oct-11 23:33N 52°24' E 004°52'0 0.0
2014-Oct-11 22:33N 52°24' E 004°52'0 0.0
2014-Oct-11 21:34N 52°24' E 004°52'0 0.0
2014-Oct-11 20:33N 52°24' E 004°52'0 0.0
2014-Oct-11 19:33N 52°24' E 004°52'0 0.0
2014-Oct-11 18:33N 52°24' E 004°52'0 0.0
2014-Oct-11 17:33N 52°24' E 004°52'0 0.0
2014-Oct-11 16:33N 52°24' E 004°52'0 0.0
2014-Oct-11 15:33N 52°24' E 004°52'0 0.0
2014-Oct-11 14:34N 52°24' E 004°52'0 0.0
2014-Oct-11 13:34N 52°24' E 004°52'0 0.0
2014-Oct-11 12:33N 52°24' E 004°52'0 0.0
2014-Oct-11 11:33N 52°24' E 004°52'0 0.0
2014-Oct-11 10:33N 52°24' E 004°52'0 0.0
2014-Oct-11 09:33N 52°24' E 004°52'0 0.0
2014-Oct-11 08:33N 52°24' E 004°52'0 0.0
2014-Oct-11 07:33N 52°24' E 004°52'0 0.0
2014-Oct-11 06:34N 52°24' E 004°52'0 0.0
2014-Oct-11 05:33N 52°24' E 004°52'0 0.0
2014-Oct-11 04:33N 52°24' E 004°52'0 0.0
2014-Oct-11 03:34N 52°24' E 004°52'0 0.0
2014-Oct-11 02:33N 52°24' E 004°52'0 0.0
2014-Oct-11 01:34N 52°24' E 004°52'0 0.0
2014-Oct-11 00:33N 52°24' E 004°52'0 0.0
2014-Oct-10 23:34N 52°24' E 004°52'0 0.0
2014-Oct-10 22:34N 52°24' E 004°52'0 0.0
2014-Oct-10 21:33N 52°24' E 004°52'0 0.0
2014-Oct-10 20:34N 52°24' E 004°52'0 0.0
2014-Oct-10 19:34N 52°24' E 004°52'0 0.0
2014-Oct-10 18:34N 52°24' E 004°52'0 0.0
2014-Oct-10 17:33N 52°24' E 004°52'0 0.0
2014-Oct-10 16:34N 52°24' E 004°52'0 0.0
2014-Oct-10 15:33N 52°24' E 004°52'0 0.0
2014-Oct-10 14:33N 52°24' E 004°52'0 0.1
2014-Oct-10 13:33N 52°24' E 004°52'0 0.1
2014-Oct-10 12:34N 52°24' E 004°52'0 0.0
2014-Oct-10 11:33N 52°24' E 004°52'0 0.0
2014-Oct-10 10:34N 52°24' E 004°52'0 0.0
2014-Oct-10 09:33N 52°24' E 004°52'0 0.0
2014-Oct-10 08:34N 52°24' E 004°52'0 0.0
2014-Oct-10 07:34N 52°24' E 004°52'0 0.0
2014-Oct-10 06:34N 52°24' E 004°52'0 0.0
2014-Oct-10 05:33N 52°24' E 004°52'0 0.0
2014-Oct-10 04:33N 52°24' E 004°52'0 0.0
2014-Oct-10 03:33N 52°24' E 004°52'0 0.0
2014-Oct-10 02:33N 52°24' E 004°52'0 0.0
2014-Oct-10 01:33N 52°24' E 004°52'0 0.0
2014-Oct-10 00:34N 52°24' E 004°52'0 0.0
2014-Oct-09 23:33N 52°24' E 004°52'0 0.0
2014-Oct-09 22:33N 52°24' E 004°52'0 0.0
2014-Oct-09 21:33N 52°24' E 004°52'0 0.0
2014-Oct-09 20:33N 52°24' E 004°52'0 0.0
2014-Oct-09 19:33N 52°24' E 004°52'0 0.0
2014-Oct-09 18:33N 52°24' E 004°52'0 0.0
2014-Oct-09 17:33N 52°24' E 004°52'0 0.0
2014-Oct-09 16:34N 52°24' E 004°52'0 0.0
2014-Oct-09 15:33N 52°24' E 004°52'0 0.0
2014-Oct-09 14:33N 52°24' E 004°52'4 4.0
2014-Oct-09 13:33N 52°22' E 004°57'7 7.3
2014-Oct-09 12:33N 52°15' E 005°01'8 7.6
2014-Oct-09 11:33N 52°08' E 005°03'7 7.0
2014-Oct-09 10:33N 52°01' E 005°07'1 1.3
2014-Oct-09 09:33N 51°60' E 005°05'7 6.6
2014-Oct-09 08:33N 51°57' E 004°56'7 7.0
2014-Oct-09 07:33N 51°54' E 004°45'5 4.8
2014-Oct-09 06:33N 51°51' E 004°40'5 5.4
2014-Oct-09 05:33N 51°46' E 004°37'0 0.0
2014-Oct-09 04:32N 51°46' E 004°37'0 0.0
2014-Oct-09 03:32N 51°46' E 004°37'0 0.0
2014-Oct-09 02:33N 51°46' E 004°37'0 0.0
2014-Oct-09 01:33N 51°46' E 004°37'0 0.0
2014-Oct-09 00:32N 51°46' E 004°37'0 0.0
2014-Oct-08 23:33N 51°46' E 004°37'0 0.0
2014-Oct-08 22:33N 51°46' E 004°37'0 0.0
2014-Oct-08 21:33N 51°46' E 004°37'0 0.0
2014-Oct-08 20:33N 51°46' E 004°37'0 0.0
2014-Oct-08 19:33N 51°46' E 004°37'0 0.0
2014-Oct-08 18:33N 51°46' E 004°37'0 0.0
2014-Oct-08 17:33N 51°46' E 004°37'0 0.0
2014-Oct-08 16:33N 51°46' E 004°37'0 0.0
2014-Oct-08 15:33N 51°46' E 004°37'0 0.0
2014-Oct-08 14:33N 51°46' E 004°37'0 0.0
2014-Oct-08 13:33N 51°46' E 004°37'0 0.0
2014-Oct-08 12:33N 51°46' E 004°37'0 0.0
2014-Oct-08 11:33N 51°46' E 004°37'0 0.0
2014-Oct-08 10:33N 51°46' E 004°37'0 0.0
2014-Oct-08 09:33N 51°46' E 004°37'0 0.1
2014-Oct-08 08:33N 51°46' E 004°37'3 3.4
2014-Oct-08 07:34N 51°49' E 004°39'0 0.0
2014-Oct-08 06:33N 51°49' E 004°39'0 0.0
2014-Oct-08 05:34N 51°49' E 004°39'0 0.0
2014-Oct-08 04:34N 51°49' E 004°39'0 0.0
2014-Oct-08 03:34N 51°49' E 004°39'0 0.0
2014-Oct-08 02:33N 51°49' E 004°39'0 0.0
2014-Oct-08 01:34N 51°49' E 004°39'0 0.0
2014-Oct-08 00:34N 51°49' E 004°39'0 0.0
2014-Oct-07 23:34N 51°49' E 004°39'0 0.0
2014-Oct-07 22:34N 51°49' E 004°39'0 0.0
2014-Oct-07 21:34N 51°49' E 004°39'0 0.0
2014-Oct-07 20:33N 51°49' E 004°39'0 0.0
2014-Oct-07 19:33N 51°49' E 004°39'0 0.0
2014-Oct-07 18:33N 51°49' E 004°39'0 0.0
2014-Oct-07 17:33N 51°49' E 004°39'0 0.0
2014-Oct-07 16:33N 51°49' E 004°39'0 0.0
2014-Oct-07 15:33N 51°49' E 004°39'0 0.0
2014-Oct-07 14:34N 51°49' E 004°39'0 0.0
2014-Oct-07 13:33N 51°49' E 004°39'0 0.0
2014-Oct-07 12:33N 51°49' E 004°39'0 0.0
2014-Oct-07 11:34N 51°49' E 004°39'0 0.0
2014-Oct-07 10:33N 51°49' E 004°39'0 0.0
2014-Oct-07 09:33N 51°49' E 004°39'0 0.0
2014-Oct-07 08:33N 51°49' E 004°39'0 0.0
2014-Oct-07 07:33N 51°49' E 004°39'0 0.0
2014-Oct-07 06:33N 51°49' E 004°39'0 0.0
2014-Oct-07 05:33N 51°49' E 004°39'0 0.0
2014-Oct-07 04:34N 51°49' E 004°39'0 0.0
2014-Oct-07 03:33N 51°49' E 004°39'0 0.0
2014-Oct-07 02:34N 51°49' E 004°39'0 0.0
2014-Oct-07 01:34N 51°49' E 004°39'0 0.0
2014-Oct-07 00:34N 51°49' E 004°39'0 0.0
2014-Oct-06 23:34N 51°49' E 004°39'0 0.0
2014-Oct-06 22:34N 51°49' E 004°39'0 0.0
2014-Oct-06 21:34N 51°49' E 004°39'0 0.0
2014-Oct-06 20:34N 51°49' E 004°39'0 0.0
2014-Oct-06 19:34N 51°49' E 004°39'0 0.0
2014-Oct-06 18:34N 51°49' E 004°39'0 0.0
2014-Oct-06 17:34N 51°49' E 004°39'0 0.0
2014-Oct-06 16:33N 51°49' E 004°39'0 0.0
2014-Oct-06 15:34N 51°49' E 004°39'0 0.0
2014-Oct-06 14:33N 51°49' E 004°39'0 0.0
2014-Oct-06 13:33N 51°49' E 004°39'0 0.0
2014-Oct-06 12:34N 51°49' E 004°39'0 0.0
2014-Oct-06 11:33N 51°49' E 004°39'0 0.0
2014-Oct-06 10:33N 51°49' E 004°39'0 0.0
2014-Oct-06 09:33N 51°49' E 004°39'0 0.0
2014-Oct-06 08:33N 51°49' E 004°39'0 0.0
2014-Oct-06 07:34N 51°49' E 004°39'0 0.0
2014-Oct-06 06:34N 51°49' E 004°39'0 0.0
2014-Oct-06 05:34N 51°49' E 004°39'0 0.0
2014-Oct-06 04:34N 51°49' E 004°39'0 0.0
2014-Oct-06 03:33N 51°49' E 004°39'0 0.0
2014-Oct-06 02:33N 51°49' E 004°39'0 0.0
2014-Oct-06 01:33N 51°49' E 004°39'0 0.0
2014-Oct-06 00:33N 51°49' E 004°39'0 0.0
2014-Oct-05 23:34N 51°49' E 004°39'0 0.0
2014-Oct-05 22:34N 51°49' E 004°39'0 0.0
2014-Oct-05 21:34N 51°49' E 004°39'0 0.0
2014-Oct-05 20:34N 51°49' E 004°39'0 0.0
2014-Oct-05 19:34N 51°49' E 004°39'0 0.0
2014-Oct-05 18:34N 51°49' E 004°39'0 0.0
2014-Oct-05 17:34N 51°49' E 004°39'0 0.0
2014-Oct-05 16:33N 51°49' E 004°39'0 0.0
2014-Oct-05 15:33N 51°49' E 004°39'0 0.0
2014-Oct-05 14:33N 51°49' E 004°39'0 0.0
2014-Oct-05 13:34N 51°49' E 004°39'0 0.0
2014-Oct-05 12:33N 51°49' E 004°39'0 0.0
2014-Oct-05 11:34N 51°49' E 004°39'0 0.0
2014-Oct-05 10:34N 51°49' E 004°39'0 0.0
2014-Oct-05 09:33N 51°49' E 004°39'0 0.0
2014-Oct-05 08:33N 51°49' E 004°39'0 0.0
2014-Oct-05 07:33N 51°49' E 004°39'0 0.0
2014-Oct-05 06:34N 51°49' E 004°39'0 0.0
2014-Oct-05 05:33N 51°49' E 004°39'0 0.0
2014-Oct-05 04:33N 51°49' E 004°39'0 0.0
2014-Oct-05 03:33N 51°49' E 004°39'0 0.0
2014-Oct-05 02:33N 51°49' E 004°39'0 0.0
2014-Oct-05 01:34N 51°49' E 004°39'0 0.0
2014-Oct-05 00:34N 51°49' E 004°39'0 0.0
2014-Oct-04 23:33N 51°49' E 004°39'0 0.0
2014-Oct-04 22:34N 51°49' E 004°39'0 0.0
2014-Oct-04 21:34N 51°49' E 004°39'0 0.0
2014-Oct-04 20:33N 51°49' E 004°39'0 0.0
2014-Oct-04 19:33N 51°49' E 004°39'0 0.0
2014-Oct-04 18:34N 51°49' E 004°39'0 0.0
2014-Oct-04 17:33N 51°49' E 004°39'0 0.0
2014-Oct-04 16:33N 51°49' E 004°39'  

Dump ship's entire track history